sensor_id;sensor_type;location;lat;lon;timestamp;temperature;humidity
10390;DHT22;5241;47.830;12.972;2023-08-31T00:00:49;13.00;99.90
10390;DHT22;5241;47.830;12.972;2023-08-31T00:03:16;13.00;99.90
10390;DHT22;5241;47.830;12.972;2023-08-31T00:05:42;13.00;99.90
10390;DHT22;5241;47.830;12.972;2023-08-31T00:08:09;13.10;99.90
10390;DHT22;5241;47.830;12.972;2023-08-31T00:10:35;13.10;99.90
10390;DHT22;5241;47.830;12.972;2023-08-31T00:13:05;13.20;99.90
10390;DHT22;5241;47.830;12.972;2023-08-31T00:15:33;13.20;99.90
10390;DHT22;5241;47.830;12.972;2023-08-31T00:18:01;13.30;99.90
10390;DHT22;5241;47.830;12.972;2023-08-31T00:20:27;13.30;99.90
10390;DHT22;5241;47.830;12.972;2023-08-31T00:22:55;13.30;99.90
10390;DHT22;5241;47.830;12.972;2023-08-31T00:25:21;13.30;99.90
10390;DHT22;5241;47.830;12.972;2023-08-31T00:27:46;13.40;99.90
10390;DHT22;5241;47.830;12.972;2023-08-31T00:30:13;13.50;99.90
10390;DHT22;5241;47.830;12.972;2023-08-31T00:32:39;13.60;99.90
10390;DHT22;5241;47.830;12.972;2023-08-31T00:35:06;13.60;99.90
10390;DHT22;5241;47.830;12.972;2023-08-31T00:37:33;13.70;99.90
10390;DHT22;5241;47.830;12.972;2023-08-31T00:39:59;13.70;99.90
10390;DHT22;5241;47.830;12.972;2023-08-31T00:42:25;13.60;99.90
10390;DHT22;5241;47.830;12.972;2023-08-31T00:44:51;13.60;99.90
10390;DHT22;5241;47.830;12.972;2023-08-31T00:47:17;13.60;99.90
10390;DHT22;5241;47.830;12.972;2023-08-31T00:49:43;13.50;99.90
10390;DHT22;5241;47.830;12.972;2023-08-31T00:52:09;13.60;99.90
10390;DHT22;5241;47.830;12.972;2023-08-31T00:54:35;13.70;99.90
10390;DHT22;5241;47.830;12.972;2023-08-31T00:57:01;13.70;99.90
10390;DHT22;5241;47.830;12.972;2023-08-31T00:59:27;13.70;99.90
10390;DHT22;5241;47.830;12.972;2023-08-31T01:01:57;13.70;99.90
10390;DHT22;5241;47.830;12.972;2023-08-31T01:07:43;13.70;99.90
10390;DHT22;5241;47.830;12.972;2023-08-31T01:10:35;13.70;99.90
10390;DHT22;5241;47.830;12.972;2023-08-31T01:13:07;13.70;99.90
10390;DHT22;5241;47.830;12.972;2023-08-31T01:15:38;13.70;99.90
10390;DHT22;5241;47.830;12.972;2023-08-31T01:18:06;13.60;99.90
10390;DHT22;5241;47.830;12.972;2023-08-31T01:20:38;13.60;99.90
10390;DHT22;5241;47.830;12.972;2023-08-31T01:23:13;13.60;99.90
10390;DHT22;5241;47.830;12.972;2023-08-31T01:25:41;13.60;99.90
10390;DHT22;5241;47.830;12.972;2023-08-31T01:28:09;13.50;99.90
10390;DHT22;5241;47.830;12.972;2023-08-31T01:30:35;13.60;99.90
10390;DHT22;5241;47.830;12.972;2023-08-31T01:33:01;13.60;99.90
10390;DHT22;5241;47.830;12.972;2023-08-31T01:35:32;13.60;99.90
10390;DHT22;5241;47.830;12.972;2023-08-31T01:38:02;13.60;99.90
10390;DHT22;5241;47.830;12.972;2023-08-31T01:40:38;13.70;99.90
10390;DHT22;5241;47.830;12.972;2023-08-31T01:43:05;13.70;99.90
10390;DHT22;5241;47.830;12.972;2023-08-31T01:45:32;13.60;99.90
10390;DHT22;5241;47.830;12.972;2023-08-31T01:47:59;13.60;99.90
10390;DHT22;5241;47.830;12.972;2023-08-31T01:50:25;13.60;99.90
10390;DHT22;5241;47.830;12.972;2023-08-31T01:52:51;13.60;99.90
10390;DHT22;5241;47.830;12.972;2023-08-31T01:55:18;13.50;99.90
10390;DHT22;5241;47.830;12.972;2023-08-31T01:57:44;13.50;99.90
10390;DHT22;5241;47.830;12.972;2023-08-31T02:00:10;13.50;99.90
10390;DHT22;5241;47.830;12.972;2023-08-31T02:02:36;13.50;99.90
10390;DHT22;5241;47.830;12.972;2023-08-31T02:05:03;13.60;99.90
10390;DHT22;5241;47.830;12.972;2023-08-31T02:07:30;13.70;99.90
10390;DHT22;5241;47.830;12.972;2023-08-31T02:09:55;13.70;99.90
10390;DHT22;5241;47.830;12.972;2023-08-31T02:12:21;13.60;99.90
10390;DHT22;5241;47.830;12.972;2023-08-31T02:14:46;13.70;99.90
10390;DHT22;5241;47.830;12.972;2023-08-31T02:17:12;13.70;99.90
10390;DHT22;5241;47.830;12.972;2023-08-31T02:19:38;13.60;99.90
10390;DHT22;5241;47.830;12.972;2023-08-31T02:22:03;13.60;99.90
10390;DHT22;5241;47.830;12.972;2023-08-31T02:24:29;13.60;99.90
10390;DHT22;5241;47.830;12.972;2023-08-31T02:26:56;13.60;99.90
10390;DHT22;5241;47.830;12.972;2023-08-31T02:29:22;13.50;99.90
10390;DHT22;5241;47.830;12.972;2023-08-31T02:31:47;13.50;99.90
10390;DHT22;5241;47.830;12.972;2023-08-31T02:34:13;13.40;99.90
10390;DHT22;5241;47.830;12.972;2023-08-31T02:36:39;13.50;99.90
10390;DHT22;5241;47.830;12.972;2023-08-31T02:39:04;13.40;99.90
10390;DHT22;5241;47.830;12.972;2023-08-31T02:41:30;13.40;99.90
10390;DHT22;5241;47.830;12.972;2023-08-31T02:43:55;13.30;99.90
10390;DHT22;5241;47.830;12.972;2023-08-31T02:46:21;13.20;99.90
10390;DHT22;5241;47.830;12.972;2023-08-31T02:48:48;13.20;99.90
10390;DHT22;5241;47.830;12.972;2023-08-31T02:51:13;13.20;99.90
10390;DHT22;5241;47.830;12.972;2023-08-31T02:53:39;13.20;99.90
10390;DHT22;5241;47.830;12.972;2023-08-31T02:56:04;13.20;99.90
10390;DHT22;5241;47.830;12.972;2023-08-31T02:58:30;13.10;99.90
10390;DHT22;5241;47.830;12.972;2023-08-31T03:00:55;13.10;99.90
10390;DHT22;5241;47.830;12.972;2023-08-31T03:03:30;13.00;99.90
10390;DHT22;5241;47.830;12.972;2023-08-31T03:05:56;13.00;99.90
10390;DHT22;5241;47.830;12.972;2023-08-31T03:08:22;13.00;99.90
10390;DHT22;5241;47.830;12.972;2023-08-31T03:10:47;12.90;99.90
10390;DHT22;5241;47.830;12.972;2023-08-31T03:13:13;12.80;99.90
10390;DHT22;5241;47.830;12.972;2023-08-31T03:15:38;12.80;99.90
10390;DHT22;5241;47.830;12.972;2023-08-31T03:18:04;12.80;99.90
10390;DHT22;5241;47.830;12.972;2023-08-31T03:20:29;12.70;99.90
10390;DHT22;5241;47.830;12.972;2023-08-31T03:22:55;12.80;99.90
10390;DHT22;5241;47.830;12.972;2023-08-31T03:25:20;12.80;99.90
10390;DHT22;5241;47.830;12.972;2023-08-31T03:27:46;12.70;99.90
10390;DHT22;5241;47.830;12.972;2023-08-31T03:30:12;12.70;99.90
10390;DHT22;5241;47.830;12.972;2023-08-31T03:32:37;12.70;99.90
10390;DHT22;5241;47.830;12.972;2023-08-31T03:35:03;12.70;99.90
10390;DHT22;5241;47.830;12.972;2023-08-31T03:37:29;12.70;99.90
10390;DHT22;5241;47.830;12.972;2023-08-31T03:39:54;12.70;99.90
10390;DHT22;5241;47.830;12.972;2023-08-31T03:42:20;12.60;99.90
10390;DHT22;5241;47.830;12.972;2023-08-31T03:44:45;12.60;99.90
10390;DHT22;5241;47.830;12.972;2023-08-31T03:47:11;12.60;99.90
10390;DHT22;5241;47.830;12.972;2023-08-31T03:49:36;12.60;99.90
10390;DHT22;5241;47.830;12.972;2023-08-31T03:52:02;12.60;99.90
10390;DHT22;5241;47.830;12.972;2023-08-31T03:54:28;12.60;99.90
10390;DHT22;5241;47.830;12.972;2023-08-31T03:56:54;12.50;99.90
10390;DHT22;5241;47.830;12.972;2023-08-31T03:59:19;12.50;99.90
10390;DHT22;5241;47.830;12.972;2023-08-31T04:01:45;12.60;99.90
10390;DHT22;5241;47.830;12.972;2023-08-31T04:04:12;12.70;99.90
10390;DHT22;5241;47.830;12.972;2023-08-31T04:06:37;12.80;99.90
10390;DHT22;5241;47.830;12.972;2023-08-31T04:09:03;12.90;99.90
10390;DHT22;5241;47.830;12.972;2023-08-31T04:11:28;12.90;99.90
10390;DHT22;5241;47.830;12.972;2023-08-31T04:13:54;13.00;99.90
10390;DHT22;5241;47.830;12.972;2023-08-31T04:16:20;13.00;99.90
10390;DHT22;5241;47.830;12.972;2023-08-31T04:18:45;13.00;99.90
10390;DHT22;5241;47.830;12.972;2023-08-31T04:21:19;13.00;99.90
10390;DHT22;5241;47.830;12.972;2023-08-31T04:23:45;13.10;99.90
10390;DHT22;5241;47.830;12.972;2023-08-31T04:26:11;13.10;99.90
10390;DHT22;5241;47.830;12.972;2023-08-31T04:28:41;13.20;99.90
10390;DHT22;5241;47.830;12.972;2023-08-31T04:31:07;13.30;99.90
10390;DHT22;5241;47.830;12.972;2023-08-31T04:33:37;13.30;99.90
10390;DHT22;5241;47.830;12.972;2023-08-31T04:36:04;13.30;99.90
10390;DHT22;5241;47.830;12.972;2023-08-31T04:38:31;13.30;99.90
10390;DHT22;5241;47.830;12.972;2023-08-31T04:41:00;13.20;99.90
10390;DHT22;5241;47.830;12.972;2023-08-31T04:43:26;13.10;99.90
10390;DHT22;5241;47.830;12.972;2023-08-31T04:45:52;13.00;99.90
10390;DHT22;5241;47.830;12.972;2023-08-31T04:48:18;12.90;99.90
10390;DHT22;5241;47.830;12.972;2023-08-31T04:50:43;12.80;99.90
10390;DHT22;5241;47.830;12.972;2023-08-31T04:53:09;12.70;99.90
10390;DHT22;5241;47.830;12.972;2023-08-31T04:55:34;12.70;99.90
10390;DHT22;5241;47.830;12.972;2023-08-31T04:58:00;12.60;99.90
10390;DHT22;5241;47.830;12.972;2023-08-31T05:00:25;12.60;99.90
10390;DHT22;5241;47.830;12.972;2023-08-31T05:02:51;12.60;99.90
10390;DHT22;5241;47.830;12.972;2023-08-31T05:05:17;12.60;99.90
10390;DHT22;5241;47.830;12.972;2023-08-31T05:07:44;12.60;99.90
10390;DHT22;5241;47.830;12.972;2023-08-31T05:10:10;12.60;99.90
10390;DHT22;5241;47.830;12.972;2023-08-31T05:12:35;12.50;99.90
10390;DHT22;5241;47.830;12.972;2023-08-31T05:15:01;12.60;99.90
10390;DHT22;5241;47.830;12.972;2023-08-31T05:17:28;12.60;99.90
10390;DHT22;5241;47.830;12.972;2023-08-31T05:19:53;12.60;99.90
10390;DHT22;5241;47.830;12.972;2023-08-31T05:22:19;12.60;99.90
10390;DHT22;5241;47.830;12.972;2023-08-31T05:24:44;12.60;99.90
10390;DHT22;5241;47.830;12.972;2023-08-31T05:27:10;12.60;99.90
10390;DHT22;5241;47.830;12.972;2023-08-31T05:29:36;12.70;99.90
10390;DHT22;5241;47.830;12.972;2023-08-31T05:32:01;12.70;99.90
10390;DHT22;5241;47.830;12.972;2023-08-31T05:34:27;12.80;99.90
10390;DHT22;5241;47.830;12.972;2023-08-31T05:36:53;12.80;99.90
10390;DHT22;5241;47.830;12.972;2023-08-31T05:39:19;12.80;99.90
10390;DHT22;5241;47.830;12.972;2023-08-31T05:41:44;12.80;99.90
10390;DHT22;5241;47.830;12.972;2023-08-31T05:44:10;12.80;99.90
10390;DHT22;5241;47.830;12.972;2023-08-31T05:46:36;12.80;99.90
10390;DHT22;5241;47.830;12.972;2023-08-31T05:49:02;12.80;99.90
10390;DHT22;5241;47.830;12.972;2023-08-31T05:51:27;12.90;99.90
10390;DHT22;5241;47.830;12.972;2023-08-31T05:53:53;13.00;99.90
10390;DHT22;5241;47.830;12.972;2023-08-31T05:56:21;13.00;99.90
10390;DHT22;5241;47.830;12.972;2023-08-31T05:58:47;13.10;99.90
10390;DHT22;5241;47.830;12.972;2023-08-31T06:01:13;13.10;99.90
10390;DHT22;5241;47.830;12.972;2023-08-31T06:03:38;13.20;99.90
10390;DHT22;5241;47.830;12.972;2023-08-31T06:06:04;13.20;99.90
10390;DHT22;5241;47.830;12.972;2023-08-31T06:08:29;13.20;99.90
10390;DHT22;5241;47.830;12.972;2023-08-31T06:10:58;13.20;99.90
10390;DHT22;5241;47.830;12.972;2023-08-31T06:13:24;13.30;99.90
10390;DHT22;5241;47.830;12.972;2023-08-31T06:15:49;13.40;99.90
10390;DHT22;5241;47.830;12.972;2023-08-31T06:18:15;13.50;99.90
10390;DHT22;5241;47.830;12.972;2023-08-31T06:20:41;13.60;99.90
10390;DHT22;5241;47.830;12.972;2023-08-31T06:23:06;13.60;99.90
10390;DHT22;5241;47.830;12.972;2023-08-31T06:25:32;13.70;99.90
10390;DHT22;5241;47.830;12.972;2023-08-31T06:27:57;13.80;99.90
10390;DHT22;5241;47.830;12.972;2023-08-31T06:30:23;14.00;99.90
10390;DHT22;5241;47.830;12.972;2023-08-31T06:32:50;14.10;99.90
10390;DHT22;5241;47.830;12.972;2023-08-31T06:35:15;14.10;99.90
10390;DHT22;5241;47.830;12.972;2023-08-31T06:37:42;14.20;99.90
10390;DHT22;5241;47.830;12.972;2023-08-31T06:40:08;14.20;99.90
10390;DHT22;5241;47.830;12.972;2023-08-31T06:42:37;14.40;99.90
10390;DHT22;5241;47.830;12.972;2023-08-31T06:45:04;14.50;99.90
10390;DHT22;5241;47.830;12.972;2023-08-31T06:47:30;14.60;99.90
10390;DHT22;5241;47.830;12.972;2023-08-31T06:49:56;14.60;99.90
10390;DHT22;5241;47.830;12.972;2023-08-31T06:52:23;14.70;99.90
10390;DHT22;5241;47.830;12.972;2023-08-31T06:54:49;14.70;99.90
10390;DHT22;5241;47.830;12.972;2023-08-31T06:57:15;14.90;99.90
10390;DHT22;5241;47.830;12.972;2023-08-31T06:59:40;15.00;99.90
10390;DHT22;5241;47.830;12.972;2023-08-31T07:02:06;15.10;99.90
10390;DHT22;5241;47.830;12.972;2023-08-31T07:04:31;15.00;99.90
10390;DHT22;5241;47.830;12.972;2023-08-31T07:06:57;15.20;99.90
10390;DHT22;5241;47.830;12.972;2023-08-31T07:09:23;15.40;99.90
10390;DHT22;5241;47.830;12.972;2023-08-31T07:11:48;15.40;99.90
10390;DHT22;5241;47.830;12.972;2023-08-31T07:14:14;15.30;99.90
10390;DHT22;5241;47.830;12.972;2023-08-31T07:16:39;15.30;99.90
10390;DHT22;5241;47.830;12.972;2023-08-31T07:19:05;15.30;99.90
10390;DHT22;5241;47.830;12.972;2023-08-31T07:21:30;15.30;99.90
10390;DHT22;5241;47.830;12.972;2023-08-31T07:23:57;15.60;99.90
10390;DHT22;5241;47.830;12.972;2023-08-31T07:26:22;15.90;99.90
10390;DHT22;5241;47.830;12.972;2023-08-31T07:28:48;16.40;99.90
10390;DHT22;5241;47.830;12.972;2023-08-31T07:31:14;16.80;99.90
10390;DHT22;5241;47.830;12.972;2023-08-31T07:33:40;16.70;99.90
10390;DHT22;5241;47.830;12.972;2023-08-31T07:36:06;16.70;99.90
10390;DHT22;5241;47.830;12.972;2023-08-31T07:38:32;16.50;99.90
10390;DHT22;5241;47.830;12.972;2023-08-31T07:40:58;16.40;99.90
10390;DHT22;5241;47.830;12.972;2023-08-31T07:43:25;16.10;99.90
10390;DHT22;5241;47.830;12.972;2023-08-31T07:45:51;15.90;99.90
10390;DHT22;5241;47.830;12.972;2023-08-31T07:48:17;15.90;99.90
10390;DHT22;5241;47.830;12.972;2023-08-31T07:50:43;15.80;99.90
10390;DHT22;5241;47.830;12.972;2023-08-31T07:53:08;15.70;99.90
10390;DHT22;5241;47.830;12.972;2023-08-31T07:55:34;15.50;99.90
10390;DHT22;5241;47.830;12.972;2023-08-31T07:58:01;15.50;99.90
10390;DHT22;5241;47.830;12.972;2023-08-31T08:00:27;15.80;99.90
10390;DHT22;5241;47.830;12.972;2023-08-31T08:02:52;15.90;99.90
10390;DHT22;5241;47.830;12.972;2023-08-31T08:05:18;16.00;99.90
10390;DHT22;5241;47.830;12.972;2023-08-31T08:07:44;15.80;99.90
10390;DHT22;5241;47.830;12.972;2023-08-31T08:10:11;15.90;99.90
10390;DHT22;5241;47.830;12.972;2023-08-31T08:12:38;16.20;99.90
10390;DHT22;5241;47.830;12.972;2023-08-31T08:15:05;16.30;99.90
10390;DHT22;5241;47.830;12.972;2023-08-31T08:17:31;16.40;99.90
10390;DHT22;5241;47.830;12.972;2023-08-31T08:19:56;16.40;99.90
10390;DHT22;5241;47.830;12.972;2023-08-31T08:22:22;16.10;99.90
10390;DHT22;5241;47.830;12.972;2023-08-31T08:24:47;15.90;99.90
10390;DHT22;5241;47.830;12.972;2023-08-31T08:27:13;15.90;99.90
10390;DHT22;5241;47.830;12.972;2023-08-31T08:29:38;15.80;99.90
10390;DHT22;5241;47.830;12.972;2023-08-31T08:32:04;15.70;99.90
10390;DHT22;5241;47.830;12.972;2023-08-31T08:34:30;15.80;99.90
10390;DHT22;5241;47.830;12.972;2023-08-31T08:36:56;16.10;99.90
10390;DHT22;5241;47.830;12.972;2023-08-31T08:39:22;16.20;99.90
10390;DHT22;5241;47.830;12.972;2023-08-31T08:41:48;16.40;99.90
10390;DHT22;5241;47.830;12.972;2023-08-31T08:44:16;16.70;99.90
10390;DHT22;5241;47.830;12.972;2023-08-31T08:46:43;16.90;99.90
10390;DHT22;5241;47.830;12.972;2023-08-31T08:49:10;17.10;99.90
10390;DHT22;5241;47.830;12.972;2023-08-31T08:51:36;17.10;99.90
10390;DHT22;5241;47.830;12.972;2023-08-31T08:54:02;17.20;99.90
10390;DHT22;5241;47.830;12.972;2023-08-31T08:56:28;17.30;99.90
10390;DHT22;5241;47.830;12.972;2023-08-31T08:58:54;16.90;99.90
10390;DHT22;5241;47.830;12.972;2023-08-31T09:01:20;16.60;99.90
10390;DHT22;5241;47.830;12.972;2023-08-31T09:03:48;16.50;99.90
10390;DHT22;5241;47.830;12.972;2023-08-31T09:06:15;16.30;99.90
10390;DHT22;5241;47.830;12.972;2023-08-31T09:08:41;16.20;99.90
10390;DHT22;5241;47.830;12.972;2023-08-31T09:11:07;16.40;99.90
10390;DHT22;5241;47.830;12.972;2023-08-31T09:13:32;16.40;99.90
10390;DHT22;5241;47.830;12.972;2023-08-31T09:15:59;16.20;99.90
10390;DHT22;5241;47.830;12.972;2023-08-31T09:18:28;16.30;99.90
10390;DHT22;5241;47.830;12.972;2023-08-31T09:20:55;16.20;99.90
10390;DHT22;5241;47.830;12.972;2023-08-31T09:23:24;16.20;99.90
10390;DHT22;5241;47.830;12.972;2023-08-31T09:25:55;16.10;99.90
10390;DHT22;5241;47.830;12.972;2023-08-31T09:28:22;16.20;99.90
10390;DHT22;5241;47.830;12.972;2023-08-31T09:30:51;16.00;99.90
10390;DHT22;5241;47.830;12.972;2023-08-31T09:33:19;16.10;99.90
10390;DHT22;5241;47.830;12.972;2023-08-31T09:35:51;16.20;99.90
10390;DHT22;5241;47.830;12.972;2023-08-31T09:38:17;16.20;99.90
10390;DHT22;5241;47.830;12.972;2023-08-31T09:40:43;16.10;99.90
10390;DHT22;5241;47.830;12.972;2023-08-31T09:43:08;16.20;99.90
10390;DHT22;5241;47.830;12.972;2023-08-31T09:45:34;16.10;99.90
10390;DHT22;5241;47.830;12.972;2023-08-31T09:48:02;16.20;99.90
10390;DHT22;5241;47.830;12.972;2023-08-31T09:50:30;16.20;99.90
10390;DHT22;5241;47.830;12.972;2023-08-31T09:53:01;16.40;99.90
10390;DHT22;5241;47.830;12.972;2023-08-31T09:55:29;16.70;99.90
10390;DHT22;5241;47.830;12.972;2023-08-31T09:57:57;16.70;99.90
10390;DHT22;5241;47.830;12.972;2023-08-31T10:00:31;16.80;99.90
10390;DHT22;5241;47.830;12.972;2023-08-31T10:03:00;16.80;99.90
10390;DHT22;5241;47.830;12.972;2023-08-31T10:05:26;17.10;99.90
10390;DHT22;5241;47.830;12.972;2023-08-31T10:07:52;17.20;99.90
10390;DHT22;5241;47.830;12.972;2023-08-31T10:10:18;17.50;99.90
10390;DHT22;5241;47.830;12.972;2023-08-31T10:12:44;17.50;99.90
10390;DHT22;5241;47.830;12.972;2023-08-31T10:15:11;17.60;99.90
10390;DHT22;5241;47.830;12.972;2023-08-31T10:17:39;17.70;99.90
10390;DHT22;5241;47.830;12.972;2023-08-31T10:20:08;17.80;99.90
10390;DHT22;5241;47.830;12.972;2023-08-31T10:22:54;18.00;99.90
10390;DHT22;5241;47.830;12.972;2023-08-31T10:25:20;18.00;99.90
10390;DHT22;5241;47.830;12.972;2023-08-31T10:27:45;17.80;99.90
10390;DHT22;5241;47.830;12.972;2023-08-31T10:30:31;18.10;99.90
10390;DHT22;5241;47.830;12.972;2023-08-31T10:35:55;18.50;99.90
10390;DHT22;5241;47.830;12.972;2023-08-31T10:38:34;18.60;99.90
10390;DHT22;5241;47.830;12.972;2023-08-31T10:41:02;18.60;99.90
10390;DHT22;5241;47.830;12.972;2023-08-31T10:46:44;18.60;99.90
10390;DHT22;5241;47.830;12.972;2023-08-31T10:51:38;19.50;99.90
10390;DHT22;5241;47.830;12.972;2023-08-31T10:54:26;19.70;99.90
10390;DHT22;5241;47.830;12.972;2023-08-31T10:59:40;20.20;99.90
10390;DHT22;5241;47.830;12.972;2023-08-31T11:02:06;19.30;99.90
10390;DHT22;5241;47.830;12.972;2023-08-31T11:04:52;19.00;99.90
10390;DHT22;5241;47.830;12.972;2023-08-31T11:07:19;18.70;99.90
10390;DHT22;5241;47.830;12.972;2023-08-31T11:09:48;18.80;99.90
10390;DHT22;5241;47.830;12.972;2023-08-31T11:12:14;19.00;99.90
10390;DHT22;5241;47.830;12.972;2023-08-31T11:14:40;19.00;99.90
10390;DHT22;5241;47.830;12.972;2023-08-31T11:17:06;19.20;99.90
10390;DHT22;5241;47.830;12.972;2023-08-31T11:19:33;19.30;99.90
10390;DHT22;5241;47.830;12.972;2023-08-31T11:22:00;19.30;99.90
10390;DHT22;5241;47.830;12.972;2023-08-31T11:24:27;19.40;99.90
10390;DHT22;5241;47.830;12.972;2023-08-31T11:26:53;19.60;99.90
10390;DHT22;5241;47.830;12.972;2023-08-31T11:29:19;19.70;99.90
10390;DHT22;5241;47.830;12.972;2023-08-31T11:31:45;19.70;99.90
10390;DHT22;5241;47.830;12.972;2023-08-31T11:34:15;19.20;99.90
10390;DHT22;5241;47.830;12.972;2023-08-31T11:36:42;18.90;99.90
10390;DHT22;5241;47.830;12.972;2023-08-31T11:39:11;18.80;99.90
10390;DHT22;5241;47.830;12.972;2023-08-31T11:41:37;19.20;99.90
10390;DHT22;5241;47.830;12.972;2023-08-31T11:44:12;19.00;99.90
10390;DHT22;5241;47.830;12.972;2023-08-31T11:46:39;18.80;99.90
10390;DHT22;5241;47.830;12.972;2023-08-31T11:49:07;18.80;99.90
10390;DHT22;5241;47.830;12.972;2023-08-31T11:51:34;18.70;99.90
10390;DHT22;5241;47.830;12.972;2023-08-31T11:54:03;18.60;99.90
10390;DHT22;5241;47.830;12.972;2023-08-31T11:56:58;19.10;99.90
10390;DHT22;5241;47.830;12.972;2023-08-31T11:59:24;19.30;99.90
10390;DHT22;5241;47.830;12.972;2023-08-31T12:01:50;19.00;99.90
10390;DHT22;5241;47.830;12.972;2023-08-31T12:04:19;19.00;99.90
10390;DHT22;5241;47.830;12.972;2023-08-31T12:06:52;18.90;99.90
10390;DHT22;5241;47.830;12.972;2023-08-31T12:09:20;19.00;99.90
10390;DHT22;5241;47.830;12.972;2023-08-31T12:11:50;19.20;99.90
10390;DHT22;5241;47.830;12.972;2023-08-31T12:14:24;19.30;99.90
10390;DHT22;5241;47.830;12.972;2023-08-31T12:16:50;19.40;99.90
10390;DHT22;5241;47.830;12.972;2023-08-31T12:19:17;19.10;99.90
10390;DHT22;5241;47.830;12.972;2023-08-31T12:21:43;19.00;99.90
10390;DHT22;5241;47.830;12.972;2023-08-31T12:24:10;18.90;99.90
10390;DHT22;5241;47.830;12.972;2023-08-31T12:26:35;19.10;99.90
10390;DHT22;5241;47.830;12.972;2023-08-31T12:29:02;19.70;99.90
10390;DHT22;5241;47.830;12.972;2023-08-31T12:31:30;19.60;99.90
10390;DHT22;5241;47.830;12.972;2023-08-31T12:33:56;20.00;99.90
10390;DHT22;5241;47.830;12.972;2023-08-31T12:36:21;20.50;99.90
10390;DHT22;5241;47.830;12.972;2023-08-31T12:38:47;20.00;99.90
10390;DHT22;5241;47.830;12.972;2023-08-31T12:41:12;19.80;99.90
10390;DHT22;5241;47.830;12.972;2023-08-31T12:43:38;19.50;99.90
10390;DHT22;5241;47.830;12.972;2023-08-31T12:46:04;19.00;99.90
10390;DHT22;5241;47.830;12.972;2023-08-31T12:48:35;19.00;99.90
10390;DHT22;5241;47.830;12.972;2023-08-31T12:51:00;19.00;99.90
10390;DHT22;5241;47.830;12.972;2023-08-31T12:53:26;19.10;99.90
10390;DHT22;5241;47.830;12.972;2023-08-31T12:55:53;19.00;99.90
10390;DHT22;5241;47.830;12.972;2023-08-31T12:58:18;20.30;99.90
10390;DHT22;5241;47.830;12.972;2023-08-31T13:00:45;20.40;99.90
10390;DHT22;5241;47.830;12.972;2023-08-31T13:03:12;20.50;99.90
10390;DHT22;5241;47.830;12.972;2023-08-31T13:05:41;21.30;99.90
10390;DHT22;5241;47.830;12.972;2023-08-31T13:08:08;21.40;99.90
10390;DHT22;5241;47.830;12.972;2023-08-31T13:10:34;22.10;99.90
10390;DHT22;5241;47.830;12.972;2023-08-31T13:13:00;22.40;99.90
10390;DHT22;5241;47.830;12.972;2023-08-31T13:15:26;21.30;99.90
10390;DHT22;5241;47.830;12.972;2023-08-31T13:17:51;21.60;99.90
10390;DHT22;5241;47.830;12.972;2023-08-31T13:20:17;22.20;99.90
10390;DHT22;5241;47.830;12.972;2023-08-31T13:22:42;22.10;99.90
10390;DHT22;5241;47.830;12.972;2023-08-31T13:25:08;23.00;99.90
10390;DHT22;5241;47.830;12.972;2023-08-31T13:27:34;23.10;98.60
10390;DHT22;5241;47.830;12.972;2023-08-31T13:30:00;23.10;97.50
10390;DHT22;5241;47.830;12.972;2023-08-31T13:32:25;22.40;99.90
10390;DHT22;5241;47.830;12.972;2023-08-31T13:34:51;22.50;99.40
10390;DHT22;5241;47.830;12.972;2023-08-31T13:37:18;23.40;97.80
10390;DHT22;5241;47.830;12.972;2023-08-31T13:39:44;24.40;95.30
10390;DHT22;5241;47.830;12.972;2023-08-31T13:42:10;25.00;93.20
10390;DHT22;5241;47.830;12.972;2023-08-31T13:44:35;25.10;94.00
10390;DHT22;5241;47.830;12.972;2023-08-31T13:47:01;24.90;93.60
10390;DHT22;5241;47.830;12.972;2023-08-31T13:49:29;24.80;93.90
10390;DHT22;5241;47.830;12.972;2023-08-31T13:51:54;24.60;93.40
10390;DHT22;5241;47.830;12.972;2023-08-31T13:54:20;24.00;94.60
10390;DHT22;5241;47.830;12.972;2023-08-31T13:56:45;24.00;94.00
10390;DHT22;5241;47.830;12.972;2023-08-31T13:59:11;24.00;94.80
10390;DHT22;5241;47.830;12.972;2023-08-31T14:01:37;24.30;94.00
10390;DHT22;5241;47.830;12.972;2023-08-31T14:04:03;23.50;94.80
10390;DHT22;5241;47.830;12.972;2023-08-31T14:06:29;24.20;94.30
10390;DHT22;5241;47.830;12.972;2023-08-31T14:08:55;24.20;94.30
10390;DHT22;5241;47.830;12.972;2023-08-31T14:11:21;24.50;93.50
10390;DHT22;5241;47.830;12.972;2023-08-31T14:13:46;25.20;93.10
10390;DHT22;5241;47.830;12.972;2023-08-31T14:16:12;24.60;92.60
10390;DHT22;5241;47.830;12.972;2023-08-31T14:18:38;24.80;93.30
10390;DHT22;5241;47.830;12.972;2023-08-31T14:21:03;24.60;92.30
10390;DHT22;5241;47.830;12.972;2023-08-31T14:23:29;25.10;88.80
10390;DHT22;5241;47.830;12.972;2023-08-31T14:26:01;24.40;92.20
10390;DHT22;5241;47.830;12.972;2023-08-31T14:28:26;24.50;93.40
10390;DHT22;5241;47.830;12.972;2023-08-31T14:30:52;24.60;92.20
10390;DHT22;5241;47.830;12.972;2023-08-31T14:33:17;24.00;94.60
10390;DHT22;5241;47.830;12.972;2023-08-31T14:35:43;23.40;94.60
10390;DHT22;5241;47.830;12.972;2023-08-31T14:38:10;23.30;94.90
10390;DHT22;5241;47.830;12.972;2023-08-31T14:40:38;23.40;93.40
10390;DHT22;5241;47.830;12.972;2023-08-31T14:43:06;23.20;94.20
10390;DHT22;5241;47.830;12.972;2023-08-31T14:45:32;22.30;95.40
10390;DHT22;5241;47.830;12.972;2023-08-31T14:47:57;21.50;97.40
10390;DHT22;5241;47.830;12.972;2023-08-31T14:50:23;20.80;99.90
10390;DHT22;5241;47.830;12.972;2023-08-31T14:52:49;20.30;99.90
10390;DHT22;5241;47.830;12.972;2023-08-31T14:55:14;21.20;99.90
10390;DHT22;5241;47.830;12.972;2023-08-31T14:57:40;22.80;98.70
10390;DHT22;5241;47.830;12.972;2023-08-31T15:00:08;23.70;96.80
10390;DHT22;5241;47.830;12.972;2023-08-31T15:02:34;23.60;95.70
10390;DHT22;5241;47.830;12.972;2023-08-31T15:04:59;23.40;97.00
10390;DHT22;5241;47.830;12.972;2023-08-31T15:07:25;24.10;95.00
10390;DHT22;5241;47.830;12.972;2023-08-31T15:09:52;24.10;94.40
10390;DHT22;5241;47.830;12.972;2023-08-31T15:12:18;23.10;96.30
10390;DHT22;5241;47.830;12.972;2023-08-31T15:14:43;22.20;97.20
10390;DHT22;5241;47.830;12.972;2023-08-31T15:17:09;21.40;99.00
10390;DHT22;5241;47.830;12.972;2023-08-31T15:19:34;20.60;99.90
10390;DHT22;5241;47.830;12.972;2023-08-31T15:22:00;20.20;99.90
10390;DHT22;5241;47.830;12.972;2023-08-31T15:24:25;20.40;99.90
10390;DHT22;5241;47.830;12.972;2023-08-31T15:26:51;20.40;99.90
10390;DHT22;5241;47.830;12.972;2023-08-31T15:29:17;20.10;99.90
10390;DHT22;5241;47.830;12.972;2023-08-31T15:31:43;19.80;99.90
10390;DHT22;5241;47.830;12.972;2023-08-31T15:34:12;19.40;99.90
10390;DHT22;5241;47.830;12.972;2023-08-31T15:36:37;19.10;99.90
10390;DHT22;5241;47.830;12.972;2023-08-31T15:39:03;19.00;99.90
10390;DHT22;5241;47.830;12.972;2023-08-31T15:41:29;18.90;99.90